sensor_id;sensor_type;location;lat;lon;timestamp;P1;durP1;ratioP1;P2;durP2;ratioP2
3253;SDS011;1639;42.804;23.342;2023-08-21T00:01:18;8.13;;;4.23;;
3253;SDS011;1639;42.804;23.342;2023-08-21T00:03:44;13.03;;;4.93;;
3253;SDS011;1639;42.804;23.342;2023-08-21T00:06:09;6.93;;;3.70;;
3253;SDS011;1639;42.804;23.342;2023-08-21T00:08:35;9.60;;;4.67;;
3253;SDS011;1639;42.804;23.342;2023-08-21T00:11:00;6.20;;;4.20;;
3253;SDS011;1639;42.804;23.342;2023-08-21T00:13:26;8.33;;;4.83;;
3253;SDS011;1639;42.804;23.342;2023-08-21T00:15:51;7.20;;;3.80;;
3253;SDS011;1639;42.804;23.342;2023-08-21T00:18:17;7.57;;;4.00;;
3253;SDS011;1639;42.804;23.342;2023-08-21T00:20:42;6.10;;;3.20;;
3253;SDS011;1639;42.804;23.342;2023-08-21T00:23:08;7.50;;;3.90;;
3253;SDS011;1639;42.804;23.342;2023-08-21T00:25:34;7.33;;;4.00;;
3253;SDS011;1639;42.804;23.342;2023-08-21T00:27:59;8.53;;;4.03;;
3253;SDS011;1639;42.804;23.342;2023-08-21T00:30:25;6.50;;;3.50;;
3253;SDS011;1639;42.804;23.342;2023-08-21T00:32:50;7.23;;;4.50;;
3253;SDS011;1639;42.804;23.342;2023-08-21T00:35:16;8.33;;;4.73;;
3253;SDS011;1639;42.804;23.342;2023-08-21T00:37:41;7.47;;;3.70;;
3253;SDS011;1639;42.804;23.342;2023-08-21T00:40:07;7.53;;;3.90;;
3253;SDS011;1639;42.804;23.342;2023-08-21T00:42:33;9.50;;;4.60;;
3253;SDS011;1639;42.804;23.342;2023-08-21T00:44:58;9.70;;;4.23;;
3253;SDS011;1639;42.804;23.342;2023-08-21T00:47:23;6.93;;;3.90;;
3253;SDS011;1639;42.804;23.342;2023-08-21T00:49:50;8.23;;;4.37;;
3253;SDS011;1639;42.804;23.342;2023-08-21T00:52:15;7.80;;;4.13;;
3253;SDS011;1639;42.804;23.342;2023-08-21T00:54:41;7.63;;;3.70;;
3253;SDS011;1639;42.804;23.342;2023-08-21T00:57:07;7.33;;;4.50;;
3253;SDS011;1639;42.804;23.342;2023-08-21T00:59:32;9.23;;;4.17;;
3253;SDS011;1639;42.804;23.342;2023-08-21T01:01:59;8.70;;;4.47;;
3253;SDS011;1639;42.804;23.342;2023-08-21T01:04:24;6.97;;;4.00;;
3253;SDS011;1639;42.804;23.342;2023-08-21T01:06:49;6.47;;;3.70;;
3253;SDS011;1639;42.804;23.342;2023-08-21T01:09:29;6.83;;;4.00;;
3253;SDS011;1639;42.804;23.342;2023-08-21T01:17:20;7.50;;;3.97;;
3253;SDS011;1639;42.804;23.342;2023-08-21T01:19:48;7.00;;;4.50;;
3253;SDS011;1639;42.804;23.342;2023-08-21T01:22:14;7.23;;;3.70;;
3253;SDS011;1639;42.804;23.342;2023-08-21T01:24:40;7.00;;;3.90;;
3253;SDS011;1639;42.804;23.342;2023-08-21T01:27:05;8.80;;;4.60;;
3253;SDS011;1639;42.804;23.342;2023-08-21T01:29:31;9.20;;;4.23;;
3253;SDS011;1639;42.804;23.342;2023-08-21T01:34:47;7.40;;;4.83;;
3253;SDS011;1639;42.804;23.342;2023-08-21T01:37:15;9.40;;;4.10;;
3253;SDS011;1639;42.804;23.342;2023-08-21T01:39:42;8.50;;;3.93;;
3253;SDS011;1639;42.804;23.342;2023-08-21T01:42:07;9.53;;;3.73;;
3253;SDS011;1639;42.804;23.342;2023-08-21T01:44:32;6.50;;;3.50;;
3253;SDS011;1639;42.804;23.342;2023-08-21T01:46:58;7.93;;;4.80;;
3253;SDS011;1639;42.804;23.342;2023-08-21T01:49:23;7.53;;;4.50;;
3253;SDS011;1639;42.804;23.342;2023-08-21T01:51:49;5.93;;;3.47;;
3253;SDS011;1639;42.804;23.342;2023-08-21T01:54:14;7.23;;;4.13;;
3253;SDS011;1639;42.804;23.342;2023-08-21T01:56:39;8.50;;;4.43;;
3253;SDS011;1639;42.804;23.342;2023-08-21T01:59:05;7.97;;;3.90;;
3253;SDS011;1639;42.804;23.342;2023-08-21T02:01:31;9.10;;;4.13;;
3253;SDS011;1639;42.804;23.342;2023-08-21T02:03:57;10.00;;;4.80;;
3253;SDS011;1639;42.804;23.342;2023-08-21T02:06:22;13.10;;;4.03;;
3253;SDS011;1639;42.804;23.342;2023-08-21T02:08:48;7.70;;;3.50;;
3253;SDS011;1639;42.804;23.342;2023-08-21T02:11:13;6.40;;;3.57;;
3253;SDS011;1639;42.804;23.342;2023-08-21T02:13:39;5.90;;;3.60;;
3253;SDS011;1639;42.804;23.342;2023-08-21T02:16:04;8.80;;;4.10;;
3253;SDS011;1639;42.804;23.342;2023-08-21T02:18:29;10.17;;;3.97;;
3253;SDS011;1639;42.804;23.342;2023-08-21T02:20:55;8.80;;;4.30;;
3253;SDS011;1639;42.804;23.342;2023-08-21T02:23:20;9.90;;;4.87;;
3253;SDS011;1639;42.804;23.342;2023-08-21T02:25:46;6.60;;;4.10;;
3253;SDS011;1639;42.804;23.342;2023-08-21T02:28:11;7.47;;;4.17;;
3253;SDS011;1639;42.804;23.342;2023-08-21T02:30:39;7.60;;;3.97;;
3253;SDS011;1639;42.804;23.342;2023-08-21T02:33:05;8.67;;;4.37;;
3253;SDS011;1639;42.804;23.342;2023-08-21T02:35:31;7.20;;;3.70;;
3253;SDS011;1639;42.804;23.342;2023-08-21T02:37:56;6.93;;;4.30;;
3253;SDS011;1639;42.804;23.342;2023-08-21T02:40:21;7.53;;;4.10;;
3253;SDS011;1639;42.804;23.342;2023-08-21T02:42:47;9.30;;;4.40;;
3253;SDS011;1639;42.804;23.342;2023-08-21T02:45:12;6.97;;;3.70;;
3253;SDS011;1639;42.804;23.342;2023-08-21T02:47:38;7.90;;;4.73;;
3253;SDS011;1639;42.804;23.342;2023-08-21T02:50:04;8.53;;;3.73;;
3253;SDS011;1639;42.804;23.342;2023-08-21T02:52:31;7.80;;;4.00;;
3253;SDS011;1639;42.804;23.342;2023-08-21T02:54:57;7.10;;;3.30;;
3253;SDS011;1639;42.804;23.342;2023-08-21T02:57:23;12.50;;;4.40;;
3253;SDS011;1639;42.804;23.342;2023-08-21T02:59:49;12.80;;;3.10;;
3253;SDS011;1639;42.804;23.342;2023-08-21T03:02:15;5.90;;;3.40;;
3253;SDS011;1639;42.804;23.342;2023-08-21T03:04:40;7.80;;;3.90;;
3253;SDS011;1639;42.804;23.342;2023-08-21T03:07:06;8.93;;;3.97;;
3253;SDS011;1639;42.804;23.342;2023-08-21T03:09:31;6.70;;;3.33;;
3253;SDS011;1639;42.804;23.342;2023-08-21T03:11:56;6.70;;;3.40;;
3253;SDS011;1639;42.804;23.342;2023-08-21T03:14:22;9.50;;;3.93;;
3253;SDS011;1639;42.804;23.342;2023-08-21T03:16:47;7.30;;;3.70;;
3253;SDS011;1639;42.804;23.342;2023-08-21T03:19:13;6.83;;;4.00;;
3253;SDS011;1639;42.804;23.342;2023-08-21T03:21:38;5.70;;;3.10;;
3253;SDS011;1639;42.804;23.342;2023-08-21T03:24:03;8.17;;;3.47;;
3253;SDS011;1639;42.804;23.342;2023-08-21T03:26:31;6.03;;;3.47;;
3253;SDS011;1639;42.804;23.342;2023-08-21T03:28:56;11.13;;;4.07;;
3253;SDS011;1639;42.804;23.342;2023-08-21T03:31:22;8.10;;;4.10;;
3253;SDS011;1639;42.804;23.342;2023-08-21T03:33:47;6.30;;;4.17;;
3253;SDS011;1639;42.804;23.342;2023-08-21T03:36:13;7.63;;;4.10;;
3253;SDS011;1639;42.804;23.342;2023-08-21T03:38:38;7.30;;;3.47;;
3253;SDS011;1639;42.804;23.342;2023-08-21T03:41:03;9.00;;;3.93;;
3253;SDS011;1639;42.804;23.342;2023-08-21T03:43:30;6.30;;;2.93;;
3253;SDS011;1639;42.804;23.342;2023-08-21T03:45:56;5.93;;;2.90;;
3253;SDS011;1639;42.804;23.342;2023-08-21T03:48:21;6.60;;;3.73;;
3253;SDS011;1639;42.804;23.342;2023-08-21T03:50:47;8.73;;;4.33;;
3253;SDS011;1639;42.804;23.342;2023-08-21T03:53:13;7.30;;;3.33;;
3253;SDS011;1639;42.804;23.342;2023-08-21T03:55:39;10.63;;;4.20;;
3253;SDS011;1639;42.804;23.342;2023-08-21T03:58:04;7.10;;;3.90;;
3253;SDS011;1639;42.804;23.342;2023-08-21T04:00:29;7.67;;;4.27;;
3253;SDS011;1639;42.804;23.342;2023-08-21T04:02:55;20.67;;;15.33;;
3253;SDS011;1639;42.804;23.342;2023-08-21T04:05:21;29.53;;;24.50;;
3253;SDS011;1639;42.804;23.342;2023-08-21T04:07:46;27.37;;;17.27;;
3253;SDS011;1639;42.804;23.342;2023-08-21T04:10:12;20.90;;;10.80;;
3253;SDS011;1639;42.804;23.342;2023-08-21T04:12:37;17.03;;;9.73;;
3253;SDS011;1639;42.804;23.342;2023-08-21T04:15:02;15.43;;;8.70;;
3253;SDS011;1639;42.804;23.342;2023-08-21T04:17:28;17.87;;;13.03;;
3253;SDS011;1639;42.804;23.342;2023-08-21T04:19:53;10.50;;;8.20;;
3253;SDS011;1639;42.804;23.342;2023-08-21T04:22:20;16.80;;;13.13;;
3253;SDS011;1639;42.804;23.342;2023-08-21T04:24:45;14.17;;;9.93;;
3253;SDS011;1639;42.804;23.342;2023-08-21T04:27:11;8.07;;;5.30;;
3253;SDS011;1639;42.804;23.342;2023-08-21T04:29:37;9.47;;;5.30;;
3253;SDS011;1639;42.804;23.342;2023-08-21T04:32:03;7.43;;;4.30;;
3253;SDS011;1639;42.804;23.342;2023-08-21T04:34:29;9.57;;;4.83;;
3253;SDS011;1639;42.804;23.342;2023-08-21T04:36:54;11.13;;;4.10;;
3253;SDS011;1639;42.804;23.342;2023-08-21T04:39:19;7.60;;;4.73;;
3253;SDS011;1639;42.804;23.342;2023-08-21T04:41:45;8.17;;;4.97;;
3253;SDS011;1639;42.804;23.342;2023-08-21T04:44:10;14.23;;;4.50;;
3253;SDS011;1639;42.804;23.342;2023-08-21T04:46:35;14.67;;;4.70;;
3253;SDS011;1639;42.804;23.342;2023-08-21T04:49:01;8.57;;;4.30;;
3253;SDS011;1639;42.804;23.342;2023-08-21T04:54:48;9.37;;;4.77;;
3253;SDS011;1639;42.804;23.342;2023-08-21T04:57:14;8.60;;;4.27;;
3253;SDS011;1639;42.804;23.342;2023-08-21T04:59:40;19.90;;;5.87;;
3253;SDS011;1639;42.804;23.342;2023-08-21T05:02:06;8.80;;;5.23;;
3253;SDS011;1639;42.804;23.342;2023-08-21T05:04:31;14.43;;;6.07;;
3253;SDS011;1639;42.804;23.342;2023-08-21T05:06:57;8.23;;;4.90;;
3253;SDS011;1639;42.804;23.342;2023-08-21T05:09:22;11.60;;;6.60;;
3253;SDS011;1639;42.804;23.342;2023-08-21T05:11:48;32.73;;;5.70;;
3253;SDS011;1639;42.804;23.342;2023-08-21T05:14:13;11.17;;;5.40;;
3253;SDS011;1639;42.804;23.342;2023-08-21T05:16:38;8.60;;;4.60;;
3253;SDS011;1639;42.804;23.342;2023-08-21T05:19:04;8.40;;;5.30;;
3253;SDS011;1639;42.804;23.342;2023-08-21T05:21:29;8.97;;;4.00;;
3253;SDS011;1639;42.804;23.342;2023-08-21T05:23:55;9.60;;;5.87;;
3253;SDS011;1639;42.804;23.342;2023-08-21T05:26:20;9.23;;;4.97;;
3253;SDS011;1639;42.804;23.342;2023-08-21T05:28:45;9.93;;;5.23;;
3253;SDS011;1639;42.804;23.342;2023-08-21T05:31:11;13.23;;;5.20;;
3253;SDS011;1639;42.804;23.342;2023-08-21T05:33:37;6.80;;;3.97;;
3253;SDS011;1639;42.804;23.342;2023-08-21T05:36:02;8.33;;;4.33;;
3253;SDS011;1639;42.804;23.342;2023-08-21T05:38:28;10.70;;;5.37;;
3253;SDS011;1639;42.804;23.342;2023-08-21T05:40:53;11.07;;;4.53;;
3253;SDS011;1639;42.804;23.342;2023-08-21T05:43:19;8.73;;;4.50;;
3253;SDS011;1639;42.804;23.342;2023-08-21T05:45:44;7.83;;;4.40;;
3253;SDS011;1639;42.804;23.342;2023-08-21T05:48:10;9.37;;;5.30;;
3253;SDS011;1639;42.804;23.342;2023-08-21T05:50:35;8.40;;;4.73;;
3253;SDS011;1639;42.804;23.342;2023-08-21T05:53:05;7.97;;;5.70;;
3253;SDS011;1639;42.804;23.342;2023-08-21T05:55:30;9.73;;;5.80;;
3253;SDS011;1639;42.804;23.342;2023-08-21T05:57:56;10.17;;;5.27;;
3253;SDS011;1639;42.804;23.342;2023-08-21T06:00:21;9.80;;;4.60;;
3253;SDS011;1639;42.804;23.342;2023-08-21T06:02:46;11.37;;;5.90;;
3253;SDS011;1639;42.804;23.342;2023-08-21T06:05:12;10.50;;;5.07;;
3253;SDS011;1639;42.804;23.342;2023-08-21T06:07:37;10.93;;;4.43;;
3253;SDS011;1639;42.804;23.342;2023-08-21T06:10:05;9.27;;;5.83;;
3253;SDS011;1639;42.804;23.342;2023-08-21T06:12:31;11.63;;;4.87;;
3253;SDS011;1639;42.804;23.342;2023-08-21T06:14:57;10.13;;;4.93;;
3253;SDS011;1639;42.804;23.342;2023-08-21T06:17:22;10.27;;;5.87;;
3253;SDS011;1639;42.804;23.342;2023-08-21T06:19:47;10.73;;;5.47;;
3253;SDS011;1639;42.804;23.342;2023-08-21T06:22:13;7.80;;;4.07;;
3253;SDS011;1639;42.804;23.342;2023-08-21T06:24:38;8.13;;;4.57;;
3253;SDS011;1639;42.804;23.342;2023-08-21T06:27:04;9.23;;;4.97;;
3253;SDS011;1639;42.804;23.342;2023-08-21T06:29:29;6.67;;;4.43;;
3253;SDS011;1639;42.804;23.342;2023-08-21T06:31:54;11.57;;;5.57;;
3253;SDS011;1639;42.804;23.342;2023-08-21T06:34:20;7.60;;;4.20;;
3253;SDS011;1639;42.804;23.342;2023-08-21T06:36:45;9.20;;;5.33;;
3253;SDS011;1639;42.804;23.342;2023-08-21T06:39:11;6.80;;;4.37;;
3253;SDS011;1639;42.804;23.342;2023-08-21T06:41:36;7.07;;;4.87;;
3253;SDS011;1639;42.804;23.342;2023-08-21T06:44:01;10.40;;;5.73;;
3253;SDS011;1639;42.804;23.342;2023-08-21T06:46:27;7.77;;;5.03;;
3253;SDS011;1639;42.804;23.342;2023-08-21T06:48:52;10.47;;;6.23;;
3253;SDS011;1639;42.804;23.342;2023-08-21T06:51:17;9.67;;;5.00;;
3253;SDS011;1639;42.804;23.342;2023-08-21T06:53:43;7.30;;;5.17;;
3253;SDS011;1639;42.804;23.342;2023-08-21T06:56:08;8.03;;;4.93;;
3253;SDS011;1639;42.804;23.342;2023-08-21T06:58:33;11.77;;;5.30;;
3253;SDS011;1639;42.804;23.342;2023-08-21T07:00:59;8.33;;;5.37;;
3253;SDS011;1639;42.804;23.342;2023-08-21T07:03:26;8.00;;;4.50;;
3253;SDS011;1639;42.804;23.342;2023-08-21T07:05:54;9.17;;;5.30;;
3253;SDS011;1639;42.804;23.342;2023-08-21T07:08:21;9.40;;;5.23;;
3253;SDS011;1639;42.804;23.342;2023-08-21T07:10:47;9.90;;;4.97;;
3253;SDS011;1639;42.804;23.342;2023-08-21T07:13:12;8.13;;;5.20;;
3253;SDS011;1639;42.804;23.342;2023-08-21T07:15:37;9.47;;;5.30;;
3253;SDS011;1639;42.804;23.342;2023-08-21T07:18:03;10.77;;;5.87;;
3253;SDS011;1639;42.804;23.342;2023-08-21T07:20:29;11.40;;;6.30;;
3253;SDS011;1639;42.804;23.342;2023-08-21T07:22:54;11.07;;;5.17;;
3253;SDS011;1639;42.804;23.342;2023-08-21T07:25:19;7.90;;;5.03;;
3253;SDS011;1639;42.804;23.342;2023-08-21T07:27:45;15.77;;;4.90;;
3253;SDS011;1639;42.804;23.342;2023-08-21T07:30:10;10.50;;;5.20;;
3253;SDS011;1639;42.804;23.342;2023-08-21T07:32:36;12.73;;;5.80;;
3253;SDS011;1639;42.804;23.342;2023-08-21T07:35:01;9.50;;;5.67;;
3253;SDS011;1639;42.804;23.342;2023-08-21T07:37:26;11.87;;;5.80;;
3253;SDS011;1639;42.804;23.342;2023-08-21T07:39:52;8.00;;;4.53;;
3253;SDS011;1639;42.804;23.342;2023-08-21T07:42:18;8.93;;;4.70;;
3253;SDS011;1639;42.804;23.342;2023-08-21T07:44:44;8.77;;;4.90;;
3253;SDS011;1639;42.804;23.342;2023-08-21T07:47:11;8.57;;;5.00;;
3253;SDS011;1639;42.804;23.342;2023-08-21T07:49:36;10.80;;;4.50;;
3253;SDS011;1639;42.804;23.342;2023-08-21T07:52:02;7.97;;;5.13;;
3253;SDS011;1639;42.804;23.342;2023-08-21T07:54:28;9.13;;;5.03;;
3253;SDS011;1639;42.804;23.342;2023-08-21T07:56:54;9.10;;;4.77;;
3253;SDS011;1639;42.804;23.342;2023-08-21T07:59:19;6.80;;;4.80;;
3253;SDS011;1639;42.804;23.342;2023-08-21T08:01:45;8.63;;;5.30;;
3253;SDS011;1639;42.804;23.342;2023-08-21T08:04:10;8.53;;;5.07;;
3253;SDS011;1639;42.804;23.342;2023-08-21T08:06:36;10.73;;;5.00;;
3253;SDS011;1639;42.804;23.342;2023-08-21T08:09:01;9.63;;;4.90;;
3253;SDS011;1639;42.804;23.342;2023-08-21T08:11:28;9.10;;;5.10;;
3253;SDS011;1639;42.804;23.342;2023-08-21T08:13:54;8.97;;;4.53;;
3253;SDS011;1639;42.804;23.342;2023-08-21T08:16:20;6.80;;;4.40;;
3253;SDS011;1639;42.804;23.342;2023-08-21T08:18:45;7.00;;;5.03;;
3253;SDS011;1639;42.804;23.342;2023-08-21T08:21:10;8.73;;;4.80;;
3253;SDS011;1639;42.804;23.342;2023-08-21T08:23:36;9.90;;;5.07;;
3253;SDS011;1639;42.804;23.342;2023-08-21T08:26:01;8.60;;;5.27;;
3253;SDS011;1639;42.804;23.342;2023-08-21T08:28:27;7.13;;;4.83;;
3253;SDS011;1639;42.804;23.342;2023-08-21T08:30:52;11.10;;;5.00;;
3253;SDS011;1639;42.804;23.342;2023-08-21T08:33:18;7.90;;;4.87;;
3253;SDS011;1639;42.804;23.342;2023-08-21T08:35:43;8.87;;;5.37;;
3253;SDS011;1639;42.804;23.342;2023-08-21T08:38:08;8.10;;;4.60;;
3253;SDS011;1639;42.804;23.342;2023-08-21T08:40:34;7.83;;;5.13;;
3253;SDS011;1639;42.804;23.342;2023-08-21T08:43:07;10.00;;;5.30;;
3253;SDS011;1639;42.804;23.342;2023-08-21T08:45:33;8.40;;;5.10;;
3253;SDS011;1639;42.804;23.342;2023-08-21T08:47:59;6.93;;;4.77;;
3253;SDS011;1639;42.804;23.342;2023-08-21T08:50:30;14.77;;;6.07;;
3253;SDS011;1639;42.804;23.342;2023-08-21T08:52:57;8.80;;;4.23;;
3253;SDS011;1639;42.804;23.342;2023-08-21T08:55:23;8.50;;;5.20;;
3253;SDS011;1639;42.804;23.342;2023-08-21T08:57:49;9.30;;;4.80;;
3253;SDS011;1639;42.804;23.342;2023-08-21T09:00:16;7.63;;;4.53;;
3253;SDS011;1639;42.804;23.342;2023-08-21T09:02:42;11.07;;;5.73;;
3253;SDS011;1639;42.804;23.342;2023-08-21T09:05:08;10.27;;;5.60;;
3253;SDS011;1639;42.804;23.342;2023-08-21T09:07:35;11.47;;;4.70;;
3253;SDS011;1639;42.804;23.342;2023-08-21T09:10:00;9.23;;;5.10;;
3253;SDS011;1639;42.804;23.342;2023-08-21T09:12:28;10.10;;;4.80;;
3253;SDS011;1639;42.804;23.342;2023-08-21T09:14:57;8.43;;;5.70;;
3253;SDS011;1639;42.804;23.342;2023-08-21T09:17:24;8.60;;;4.33;;
3253;SDS011;1639;42.804;23.342;2023-08-21T09:19:50;8.10;;;5.03;;
3253;SDS011;1639;42.804;23.342;2023-08-21T09:22:16;9.40;;;4.80;;
3253;SDS011;1639;42.804;23.342;2023-08-21T09:24:59;8.23;;;4.77;;
3253;SDS011;1639;42.804;23.342;2023-08-21T09:27:30;7.90;;;5.20;;
3253;SDS011;1639;42.804;23.342;2023-08-21T09:29:55;8.40;;;5.00;;
3253;SDS011;1639;42.804;23.342;2023-08-21T09:32:22;9.23;;;4.57;;
3253;SDS011;1639;42.804;23.342;2023-08-21T09:34:47;7.43;;;4.33;;
3253;SDS011;1639;42.804;23.342;2023-08-21T09:37:13;8.87;;;4.80;;
3253;SDS011;1639;42.804;23.342;2023-08-21T09:39:38;9.00;;;4.90;;
3253;SDS011;1639;42.804;23.342;2023-08-21T09:42:07;8.00;;;5.17;;
3253;SDS011;1639;42.804;23.342;2023-08-21T09:44:37;8.70;;;5.90;;
3253;SDS011;1639;42.804;23.342;2023-08-21T09:47:04;9.63;;;5.07;;
3253;SDS011;1639;42.804;23.342;2023-08-21T09:49:33;7.73;;;5.10;;
3253;SDS011;1639;42.804;23.342;2023-08-21T09:51:59;8.60;;;4.73;;
3253;SDS011;1639;42.804;23.342;2023-08-21T09:54:26;7.30;;;4.37;;
3253;SDS011;1639;42.804;23.342;2023-08-21T09:56:52;8.83;;;4.73;;
3253;SDS011;1639;42.804;23.342;2023-08-21T09:59:18;6.60;;;4.30;;
3253;SDS011;1639;42.804;23.342;2023-08-21T10:01:44;6.60;;;4.67;;
3253;SDS011;1639;42.804;23.342;2023-08-21T10:04:15;8.03;;;4.23;;
3253;SDS011;1639;42.804;23.342;2023-08-21T10:06:42;8.47;;;4.53;;
3253;SDS011;1639;42.804;23.342;2023-08-21T10:09:09;9.03;;;4.90;;
3253;SDS011;1639;42.804;23.342;2023-08-21T10:11:35;8.57;;;4.83;;
3253;SDS011;1639;42.804;23.342;2023-08-21T10:14:00;8.40;;;4.80;;
3253;SDS011;1639;42.804;23.342;2023-08-21T10:16:26;7.77;;;4.77;;
3253;SDS011;1639;42.804;23.342;2023-08-21T10:18:51;9.00;;;4.73;;
3253;SDS011;1639;42.804;23.342;2023-08-21T10:21:17;9.23;;;4.80;;
3253;SDS011;1639;42.804;23.342;2023-08-21T10:23:48;7.83;;;4.07;;
3253;SDS011;1639;42.804;23.342;2023-08-21T10:26:14;8.80;;;4.90;;
3253;SDS011;1639;42.804;23.342;2023-08-21T10:33:54;6.80;;;4.33;;
3253;SDS011;1639;42.804;23.342;2023-08-21T10:50:28;12.20;;;5.13;;
3253;SDS011;1639;42.804;23.342;2023-08-21T10:52:53;5.77;;;3.70;;
3253;SDS011;1639;42.804;23.342;2023-08-21T10:55:19;11.27;;;4.37;;
3253;SDS011;1639;42.804;23.342;2023-08-21T10:57:48;7.57;;;5.00;;
3253;SDS011;1639;42.804;23.342;2023-08-21T11:00:15;6.17;;;3.80;;
3253;SDS011;1639;42.804;23.342;2023-08-21T11:02:46;9.30;;;5.50;;
3253;SDS011;1639;42.804;23.342;2023-08-21T11:05:13;8.47;;;4.80;;
3253;SDS011;1639;42.804;23.342;2023-08-21T11:07:43;6.70;;;4.40;;
3253;SDS011;1639;42.804;23.342;2023-08-21T11:10:14;8.57;;;4.97;;
3253;SDS011;1639;42.804;23.342;2023-08-21T11:15:16;11.87;;;5.20;;
3253;SDS011;1639;42.804;23.342;2023-08-21T11:17:43;7.53;;;4.27;;
3253;SDS011;1639;42.804;23.342;2023-08-21T11:20:22;7.93;;;4.50;;
3253;SDS011;1639;42.804;23.342;2023-08-21T11:22:56;7.13;;;4.17;;
3253;SDS011;1639;42.804;23.342;2023-08-21T11:25:22;6.37;;;4.80;;
3253;SDS011;1639;42.804;23.342;2023-08-21T11:27:48;7.80;;;4.30;;
3253;SDS011;1639;42.804;23.342;2023-08-21T11:30:13;7.50;;;4.53;;
3253;SDS011;1639;42.804;23.342;2023-08-21T11:32:39;7.80;;;4.57;;
3253;SDS011;1639;42.804;23.342;2023-08-21T11:35:05;7.73;;;5.00;;
3253;SDS011;1639;42.804;23.342;2023-08-21T11:37:34;7.80;;;4.33;;
3253;SDS011;1639;42.804;23.342;2023-08-21T11:40:10;9.53;;;4.50;;
3253;SDS011;1639;42.804;23.342;2023-08-21T11:42:36;6.60;;;4.67;;
3253;SDS011;1639;42.804;23.342;2023-08-21T11:45:04;6.40;;;4.13;;
3253;SDS011;1639;42.804;23.342;2023-08-21T11:47:35;7.53;;;4.07;;
3253;SDS011;1639;42.804;23.342;2023-08-21T11:50:09;6.70;;;3.93;;
3253;SDS011;1639;42.804;23.342;2023-08-21T11:53:02;8.80;;;5.60;;
3253;SDS011;1639;42.804;23.342;2023-08-21T11:56:17;7.03;;;3.90;;
3253;SDS011;1639;42.804;23.342;2023-08-21T11:58:54;9.40;;;4.20;;
3253;SDS011;1639;42.804;23.342;2023-08-21T12:01:21;9.20;;;5.23;;
3253;SDS011;1639;42.804;23.342;2023-08-21T12:03:48;7.33;;;4.73;;
3253;SDS011;1639;42.804;23.342;2023-08-21T12:06:19;7.83;;;4.13;;
3253;SDS011;1639;42.804;23.342;2023-08-21T12:08:45;6.30;;;4.80;;
3253;SDS011;1639;42.804;23.342;2023-08-21T12:11:10;6.70;;;3.77;;
3253;SDS011;1639;42.804;23.342;2023-08-21T12:13:36;7.83;;;4.77;;
3253;SDS011;1639;42.804;23.342;2023-08-21T12:16:02;11.67;;;4.00;;
3253;SDS011;1639;42.804;23.342;2023-08-21T12:18:28;8.27;;;4.30;;
3253;SDS011;1639;42.804;23.342;2023-08-21T12:20:53;7.40;;;4.67;;
3253;SDS011;1639;42.804;23.342;2023-08-21T12:23:18;7.40;;;4.37;;
3253;SDS011;1639;42.804;23.342;2023-08-21T12:25:44;8.50;;;4.40;;
3253;SDS011;1639;42.804;23.342;2023-08-21T12:28:09;7.07;;;4.17;;
3253;SDS011;1639;42.804;23.342;2023-08-21T12:30:36;6.57;;;4.20;;
3253;SDS011;1639;42.804;23.342;2023-08-21T12:33:01;7.60;;;4.93;;
3253;SDS011;1639;42.804;23.342;2023-08-21T12:35:26;7.00;;;3.97;;
3253;SDS011;1639;42.804;23.342;2023-08-21T12:37:56;6.50;;;4.17;;
3253;SDS011;1639;42.804;23.342;2023-08-21T12:40:23;6.57;;;4.10;;
3253;SDS011;1639;42.804;23.342;2023-08-21T12:42:49;7.70;;;4.20;;
3253;SDS011;1639;42.804;23.342;2023-08-21T12:45:15;9.93;;;5.13;;
3253;SDS011;1639;42.804;23.342;2023-08-21T12:47:41;7.30;;;4.40;;
3253;SDS011;1639;42.804;23.342;2023-08-21T12:50:06;8.20;;;4.80;;
3253;SDS011;1639;42.804;23.342;2023-08-21T12:52:32;8.40;;;4.60;;
3253;SDS011;1639;42.804;23.342;2023-08-21T12:54:57;7.10;;;4.00;;
3253;SDS011;1639;42.804;23.342;2023-08-21T12:57:24;7.60;;;4.00;;
3253;SDS011;1639;42.804;23.342;2023-08-21T12:59:51;6.30;;;3.80;;
3253;SDS011;1639;42.804;23.342;2023-08-21T13:02:17;8.20;;;4.50;;
3253;SDS011;1639;42.804;23.342;2023-08-21T13:04:42;6.80;;;4.20;;
3253;SDS011;1639;42.804;23.342;2023-08-21T13:07:08;7.53;;;4.90;;
3253;SDS011;1639;42.804;23.342;2023-08-21T13:09:33;8.30;;;4.80;;
3253;SDS011;1639;42.804;23.342;2023-08-21T13:11:59;9.43;;;4.20;;
3253;SDS011;1639;42.804;23.342;2023-08-21T13:14:24;8.73;;;5.17;;
3253;SDS011;1639;42.804;23.342;2023-08-21T13:16:50;7.33;;;4.53;;
3253;SDS011;1639;42.804;23.342;2023-08-21T13:19:15;7.43;;;4.50;;
3253;SDS011;1639;42.804;23.342;2023-08-21T13:21:40;6.60;;;4.20;;
3253;SDS011;1639;42.804;23.342;2023-08-21T13:24:06;8.30;;;4.43;;
3253;SDS011;1639;42.804;23.342;2023-08-21T13:26:32;5.80;;;3.90;;
3253;SDS011;1639;42.804;23.342;2023-08-21T13:28:57;12.40;;;5.37;;
3253;SDS011;1639;42.804;23.342;2023-08-21T13:31:23;9.03;;;3.80;;
3253;SDS011;1639;42.804;23.342;2023-08-21T13:33:48;8.13;;;4.53;;
3253;SDS011;1639;42.804;23.342;2023-08-21T13:36:15;8.23;;;4.57;;
3253;SDS011;1639;42.804;23.342;2023-08-21T13:38:42;7.70;;;4.73;;
3253;SDS011;1639;42.804;23.342;2023-08-21T13:41:08;7.33;;;4.40;;
3253;SDS011;1639;42.804;23.342;2023-08-21T13:43:34;8.30;;;4.50;;
3253;SDS011;1639;42.804;23.342;2023-08-21T13:46:00;9.10;;;4.63;;
3253;SDS011;1639;42.804;23.342;2023-08-21T13:48:26;6.97;;;4.40;;
3253;SDS011;1639;42.804;23.342;2023-08-21T13:50:52;10.20;;;4.53;;
3253;SDS011;1639;42.804;23.342;2023-08-21T13:53:17;10.73;;;5.10;;
3253;SDS011;1639;42.804;23.342;2023-08-21T13:55:43;9.17;;;4.93;;
3253;SDS011;1639;42.804;23.342;2023-08-21T13:58:09;6.83;;;4.50;;
3253;SDS011;1639;42.804;23.342;2023-08-21T14:00:34;10.90;;;4.90;;
3253;SDS011;1639;42.804;23.342;2023-08-21T14:03:00;6.40;;;4.40;;
3253;SDS011;1639;42.804;23.342;2023-08-21T14:05:25;8.33;;;4.53;;
3253;SDS011;1639;42.804;23.342;2023-08-21T14:07:52;6.37;;;3.80;;
3253;SDS011;1639;42.804;23.342;2023-08-21T14:10:18;8.33;;;4.90;;
3253;SDS011;1639;42.804;23.342;2023-08-21T14:12:43;6.27;;;4.30;;
3253;SDS011;1639;42.804;23.342;2023-08-21T14:15:09;8.63;;;4.60;;
3253;SDS011;1639;42.804;23.342;2023-08-21T14:17:35;7.40;;;4.77;;
3253;SDS011;1639;42.804;23.342;2023-08-21T14:20:01;13.50;;;5.17;;
3253;SDS011;1639;42.804;23.342;2023-08-21T14:22:27;8.10;;;5.03;;
3253;SDS011;1639;42.804;23.342;2023-08-21T14:24:53;7.47;;;4.17;;
3253;SDS011;1639;42.804;23.342;2023-08-21T14:27:18;8.40;;;4.87;;
3253;SDS011;1639;42.804;23.342;2023-08-21T14:29:44;7.70;;;5.00;;
3253;SDS011;1639;42.804;23.342;2023-08-21T14:32:09;8.53;;;4.20;;
3253;SDS011;1639;42.804;23.342;2023-08-21T14:34:35;7.00;;;4.00;;
3253;SDS011;1639;42.804;23.342;2023-08-21T14:37:01;11.93;;;4.97;;
3253;SDS011;1639;42.804;23.342;2023-08-21T14:39:29;7.40;;;4.40;;
3253;SDS011;1639;42.804;23.342;2023-08-21T14:41:54;14.10;;;4.27;;
3253;SDS011;1639;42.804;23.342;2023-08-21T14:44:23;7.30;;;4.63;;
3253;SDS011;1639;42.804;23.342;2023-08-21T14:46:49;7.57;;;5.40;;
3253;SDS011;1639;42.804;23.342;2023-08-21T14:49:15;6.60;;;4.57;;
3253;SDS011;1639;42.804;23.342;2023-08-21T14:51:40;8.67;;;4.90;;
3253;SDS011;1639;42.804;23.342;2023-08-21T14:54:06;11.33;;;4.93;;
3253;SDS011;1639;42.804;23.342;2023-08-21T14:56:32;6.80;;;4.20;;
3253;SDS011;1639;42.804;23.342;2023-08-21T14:58:58;6.67;;;4.17;;
3253;SDS011;1639;42.804;23.342;2023-08-21T15:01:23;9.17;;;5.07;;
3253;SDS011;1639;42.804;23.342;2023-08-21T15:03:49;8.57;;;4.93;;
3253;SDS011;1639;42.804;23.342;2023-08-21T15:06:14;7.30;;;5.23;;
3253;SDS011;1639;42.804;23.342;2023-08-21T15:08:41;5.90;;;4.20;;
3253;SDS011;1639;42.804;23.342;2023-08-21T15:11:07;7.70;;;4.40;;
3253;SDS011;1639;42.804;23.342;2023-08-21T15:13:34;8.43;;;5.17;;
3253;SDS011;1639;42.804;23.342;2023-08-21T15:16:00;11.57;;;5.10;;
3253;SDS011;1639;42.804;23.342;2023-08-21T15:18:25;10.13;;;4.93;;
3253;SDS011;1639;42.804;23.342;2023-08-21T15:20:50;7.67;;;4.97;;
3253;SDS011;1639;42.804;23.342;2023-08-21T15:23:16;15.70;;;5.47;;
3253;SDS011;1639;42.804;23.342;2023-08-21T15:25:41;8.93;;;3.70;;